sensor_id;sensor_type;location;lat;lon;timestamp;pressure;altitude;pressure_sealevel;temperature;humidity
9523;BME280;63165;43.016;25.784;2023-05-11T00:00:49;100471.47;;;9.69;73.86
9523;BME280;63165;43.016;25.784;2023-05-11T00:03:16;100493.22;;;9.66;73.86
9523;BME280;63165;43.016;25.784;2023-05-11T00:05:48;100478.50;;;9.58;74.10
9523;BME280;63165;43.016;25.784;2023-05-11T00:08:30;100473.28;;;9.51;73.57
9523;BME280;63165;43.016;25.784;2023-05-11T00:11:22;100504.59;;;9.62;73.92
9523;BME280;63165;43.016;25.784;2023-05-11T00:13:51;100502.00;;;9.50;73.95
9523;BME280;63165;43.016;25.784;2023-05-11T00:16:20;100487.38;;;9.23;73.95
9523;BME280;63165;43.016;25.784;2023-05-11T00:18:48;100500.34;;;9.35;74.21
9523;BME280;63165;43.016;25.784;2023-05-11T00:21:15;100492.53;;;9.32;74.57
9523;BME280;63165;43.016;25.784;2023-05-11T00:23:42;100508.22;;;9.30;74.53
9523;BME280;63165;43.016;25.784;2023-05-11T00:26:10;100483.94;;;9.11;74.12
9523;BME280;63165;43.016;25.784;2023-05-11T00:28:37;100493.47;;;9.16;74.51
9523;BME280;63165;43.016;25.784;2023-05-11T00:31:04;100500.44;;;9.15;74.15
9523;BME280;63165;43.016;25.784;2023-05-11T00:33:33;100491.75;;;9.08;74.03
9523;BME280;63165;43.016;25.784;2023-05-11T00:36:02;100495.25;;;9.03;74.07
9523;BME280;63165;43.016;25.784;2023-05-11T00:38:29;100504.81;;;9.15;73.82
9523;BME280;63165;43.016;25.784;2023-05-11T00:40:56;100510.03;;;9.07;73.90
9523;BME280;63165;43.016;25.784;2023-05-11T00:43:24;100497.91;;;8.87;73.70
9523;BME280;63165;43.016;25.784;2023-05-11T00:45:51;100507.50;;;8.88;73.91
9523;BME280;63165;43.016;25.784;2023-05-11T00:48:18;100514.47;;;8.85;73.85
9523;BME280;63165;43.016;25.784;2023-05-11T00:50:48;100476.22;;;8.70;73.95
9523;BME280;63165;43.016;25.784;2023-05-11T00:53:15;100472.75;;;8.54;73.97
9523;BME280;63165;43.016;25.784;2023-05-11T00:55:43;100457.97;;;8.39;74.02
9523;BME280;63165;43.016;25.784;2023-05-11T00:58:11;100485.81;;;8.43;74.64
9523;BME280;63165;43.016;25.784;2023-05-11T01:00:38;100489.31;;;8.44;74.92
9523;BME280;63165;43.016;25.784;2023-05-11T01:03:06;100484.09;;;8.44;74.71
9523;BME280;63165;43.016;25.784;2023-05-11T01:05:40;100487.56;;;8.43;75.04
9523;BME280;63165;43.016;25.784;2023-05-11T01:08:16;100470.16;;;8.28;74.71
9523;BME280;63165;43.016;25.784;2023-05-11T01:10:44;100493.63;;;8.39;74.99
9523;BME280;63165;43.016;25.784;2023-05-11T01:13:19;100498.81;;;8.28;74.61
9523;BME280;63165;43.016;25.784;2023-05-11T01:15:51;100503.16;;;8.24;74.74
9523;BME280;63165;43.016;25.784;2023-05-11T01:18:25;100476.25;;;8.08;74.93
9523;BME280;63165;43.016;25.784;2023-05-11T01:20:57;100497.94;;;8.07;75.34
9523;BME280;63165;43.016;25.784;2023-05-11T01:23:48;100486.66;;;8.08;75.87
9523;BME280;63165;43.016;25.784;2023-05-11T01:26:53;100496.22;;;8.14;75.85
9523;BME280;63165;43.016;25.784;2023-05-11T01:29:46;100510.13;;;8.10;75.71
9523;BME280;63165;43.016;25.784;2023-05-11T01:32:18;100505.78;;;8.03;75.43
9523;BME280;63165;43.016;25.784;2023-05-11T01:34:48;100491.88;;;7.99;75.57
9523;BME280;63165;43.016;25.784;2023-05-11T01:37:20;100489.25;;;7.91;75.40
9523;BME280;63165;43.016;25.784;2023-05-11T01:39:52;100473.59;;;7.87;75.82
9523;BME280;63165;43.016;25.784;2023-05-11T01:42:23;100504.03;;;8.02;75.76
9523;BME280;63165;43.016;25.784;2023-05-11T01:44:53;100468.38;;;7.77;75.20
9523;BME280;63165;43.016;25.784;2023-05-11T01:47:25;100473.59;;;7.73;75.43
9523;BME280;63165;43.016;25.784;2023-05-11T01:49:55;100487.47;;;7.73;75.56
9523;BME280;63165;43.016;25.784;2023-05-11T01:52:24;100505.72;;;7.75;75.62
9523;BME280;63165;43.016;25.784;2023-05-11T01:54:54;100481.38;;;7.56;75.80
9523;BME280;63165;43.016;25.784;2023-05-11T01:57:26;100465.72;;;7.44;76.39
9523;BME280;63165;43.016;25.784;2023-05-11T01:59:55;100491.78;;;7.54;76.34
9523;BME280;63165;43.016;25.784;2023-05-11T02:02:25;100470.88;;;7.33;76.39
9523;BME280;63165;43.016;25.784;2023-05-11T02:04:53;100494.34;;;7.42;76.14
9523;BME280;63165;43.016;25.784;2023-05-11T02:07:35;100483.03;;;7.32;76.53
9523;BME280;63165;43.016;25.784;2023-05-11T02:10:05;100494.31;;;7.30;76.44
9523;BME280;63165;43.016;25.784;2023-05-11T02:12:33;100481.28;;;7.22;76.76
9523;BME280;63165;43.016;25.784;2023-05-11T02:15:02;100514.28;;;7.35;77.12
9523;BME280;63165;43.016;25.784;2023-05-11T02:17:33;100469.94;;;7.15;77.00
9523;BME280;63165;43.016;25.784;2023-05-11T02:20:01;100505.56;;;7.26;77.10
9523;BME280;63165;43.016;25.784;2023-05-11T02:22:31;100510.75;;;7.27;77.21
9523;BME280;63165;43.016;25.784;2023-05-11T02:24:59;100506.44;;;7.26;77.04
9523;BME280;63165;43.016;25.784;2023-05-11T02:27:26;100503.81;;;7.23;77.24
9523;BME280;63165;43.016;25.784;2023-05-11T02:29:54;100509.91;;;7.22;77.25
9523;BME280;63165;43.016;25.784;2023-05-11T02:32:21;100502.88;;;7.12;77.31
9523;BME280;63165;43.016;25.784;2023-05-11T02:34:57;100511.66;;;7.32;76.99
9523;BME280;63165;43.016;25.784;2023-05-11T02:37:27;100489.91;;;7.19;76.11
9523;BME280;63165;43.016;25.784;2023-05-11T02:39:59;100482.94;;;7.09;76.36
9523;BME280;63165;43.016;25.784;2023-05-11T02:42:29;100505.53;;;7.19;76.26
9523;BME280;63165;43.016;25.784;2023-05-11T02:45:04;100502.03;;;7.14;76.06
9523;BME280;63165;43.016;25.784;2023-05-11T02:47:38;100496.78;;;7.07;76.43
9523;BME280;63165;43.016;25.784;2023-05-11T02:50:08;100505.41;;;6.96;76.28
9523;BME280;63165;43.016;25.784;2023-05-11T02:52:38;100512.41;;;7.02;76.35
9523;BME280;63165;43.016;25.784;2023-05-11T02:55:08;100520.25;;;7.11;76.56
9523;BME280;63165;43.016;25.784;2023-05-11T02:57:37;100503.69;;;6.97;76.48
9523;BME280;63165;43.016;25.784;2023-05-11T03:00:05;100522.00;;;7.11;76.13
9523;BME280;63165;43.016;25.784;2023-05-11T03:02:33;100528.03;;;7.08;76.79
9523;BME280;63165;43.016;25.784;2023-05-11T03:05:00;100528.88;;;7.06;76.77
9523;BME280;63165;43.016;25.784;2023-05-11T03:07:35;100522.88;;;7.13;76.81
9523;BME280;63165;43.016;25.784;2023-05-11T03:10:03;100538.41;;;7.07;76.24
9523;BME280;63165;43.016;25.784;2023-05-11T03:12:36;100497.53;;;6.79;76.45
9523;BME280;63165;43.016;25.784;2023-05-11T03:15:05;100501.91;;;6.87;76.33
9523;BME280;63165;43.016;25.784;2023-05-11T03:17:37;100503.63;;;6.83;76.10
9523;BME280;63165;43.016;25.784;2023-05-11T03:20:08;100496.59;;;6.73;76.42
9523;BME280;63165;43.016;25.784;2023-05-11T03:22:37;100526.16;;;6.84;76.79
9523;BME280;63165;43.016;25.784;2023-05-11T03:25:06;100531.41;;;6.90;76.90
9523;BME280;63165;43.016;25.784;2023-05-11T03:27:35;100510.50;;;6.72;76.85
9523;BME280;63165;43.016;25.784;2023-05-11T03:30:09;100526.97;;;6.78;77.21
9523;BME280;63165;43.016;25.784;2023-05-11T03:32:37;100516.47;;;6.63;77.49
9523;BME280;63165;43.016;25.784;2023-05-11T03:35:06;100510.38;;;6.59;77.89
9523;BME280;63165;43.016;25.784;2023-05-11T03:37:37;100507.75;;;6.52;78.27
9523;BME280;63165;43.016;25.784;2023-05-11T03:40:06;100532.94;;;6.60;78.88
9523;BME280;63165;43.016;25.784;2023-05-11T03:42:35;100489.44;;;6.39;79.44
9523;BME280;63165;43.016;25.784;2023-05-11T03:45:06;100499.94;;;6.52;79.87
9523;BME280;63165;43.016;25.784;2023-05-11T03:47:35;100500.78;;;6.51;80.19
9523;BME280;63165;43.016;25.784;2023-05-11T03:50:06;100506.13;;;6.66;80.37
9523;BME280;63165;43.016;25.784;2023-05-11T03:52:40;100499.97;;;6.55;80.55
9523;BME280;63165;43.016;25.784;2023-05-11T03:55:09;100502.63;;;6.64;80.38
9523;BME280;63165;43.016;25.784;2023-05-11T03:57:36;100530.50;;;6.88;80.40
9523;BME280;63165;43.016;25.784;2023-05-11T04:00:07;100498.38;;;6.75;80.78
9523;BME280;63165;43.016;25.784;2023-05-11T04:02:36;100521.91;;;6.98;81.25
9523;BME280;63165;43.016;25.784;2023-05-11T04:05:06;100508.03;;;6.96;81.10
9523;BME280;63165;43.016;25.784;2023-05-11T04:07:35;100529.78;;;7.12;81.54
9523;BME280;63165;43.016;25.784;2023-05-11T04:10:05;100543.75;;;7.30;81.93
9523;BME280;63165;43.016;25.784;2023-05-11T04:12:33;100526.38;;;7.23;81.94
9523;BME280;63165;43.016;25.784;2023-05-11T04:15:00;100552.53;;;7.50;82.30
9523;BME280;63165;43.016;25.784;2023-05-11T04:17:29;100528.19;;;7.42;82.22
9523;BME280;63165;43.016;25.784;2023-05-11T04:19:56;100519.59;;;7.63;82.90
9523;BME280;63165;43.016;25.784;2023-05-11T04:22:23;100530.06;;;7.86;82.57
9523;BME280;63165;43.016;25.784;2023-05-11T04:24:51;100526.59;;;8.00;82.62
9523;BME280;63165;43.016;25.784;2023-05-11T04:27:20;100526.63;;;8.03;82.41
9523;BME280;63165;43.016;25.784;2023-05-11T04:29:47;100500.56;;;8.07;82.80
9523;BME280;63165;43.016;25.784;2023-05-11T04:32:15;100535.38;;;8.42;82.27
9523;BME280;63165;43.016;25.784;2023-05-11T04:34:42;100551.00;;;8.63;82.60
9523;BME280;63165;43.016;25.784;2023-05-11T04:37:09;100527.53;;;8.66;82.30
9523;BME280;63165;43.016;25.784;2023-05-11T04:39:37;100531.84;;;8.89;81.97
9523;BME280;63165;43.016;25.784;2023-05-11T04:42:04;100523.97;;;8.92;81.48
9523;BME280;63165;43.016;25.784;2023-05-11T04:44:33;100527.47;;;9.02;81.05
9523;BME280;63165;43.016;25.784;2023-05-11T04:47:00;100545.63;;;9.32;80.68
9523;BME280;63165;43.016;25.784;2023-05-11T04:49:27;100518.63;;;9.37;80.73
9523;BME280;63165;43.016;25.784;2023-05-11T04:51:54;100549.88;;;9.55;80.63
9523;BME280;63165;43.016;25.784;2023-05-11T04:54:22;100546.28;;;9.76;80.34
9523;BME280;63165;43.016;25.784;2023-05-11T04:56:49;100550.63;;;9.88;80.23
9523;BME280;63165;43.016;25.784;2023-05-11T04:59:16;100551.38;;;10.05;79.79
9523;BME280;63165;43.016;25.784;2023-05-11T05:01:45;100553.00;;;10.22;79.64
9523;BME280;63165;43.016;25.784;2023-05-11T05:04:12;100546.84;;;10.35;78.18
9523;BME280;63165;43.016;25.784;2023-05-11T05:06:41;100553.69;;;10.50;76.65
9523;BME280;63165;43.016;25.784;2023-05-11T05:09:08;100527.53;;;10.48;75.99
9523;BME280;63165;43.016;25.784;2023-05-11T05:11:35;100532.66;;;10.62;75.37
9523;BME280;63165;43.016;25.784;2023-05-11T05:14:03;100529.81;;;10.85;74.91
9523;BME280;63165;43.016;25.784;2023-05-11T05:16:30;100517.56;;;10.91;73.41
9523;BME280;63165;43.016;25.784;2023-05-11T05:18:59;100517.28;;;11.15;73.61
9523;BME280;63165;43.016;25.784;2023-05-11T05:21:26;100525.81;;;11.30;72.61
9523;BME280;63165;43.016;25.784;2023-05-11T05:23:53;100537.00;;;11.45;71.68
9523;BME280;63165;43.016;25.784;2023-05-11T05:26:20;100507.16;;;11.56;70.94
9523;BME280;63165;43.016;25.784;2023-05-11T05:28:47;100539.06;;;11.90;69.89
9523;BME280;63165;43.016;25.784;2023-05-11T05:31:15;100538.06;;;11.99;69.55
9523;BME280;63165;43.016;25.784;2023-05-11T05:33:42;100530.09;;;12.07;68.72
9523;BME280;63165;43.016;25.784;2023-05-11T05:36:11;100516.63;;;12.27;67.91
9523;BME280;63165;43.016;25.784;2023-05-11T05:38:38;100519.03;;;12.42;67.07
9523;BME280;63165;43.016;25.784;2023-05-11T05:41:05;100510.03;;;12.57;65.99
9523;BME280;63165;43.016;25.784;2023-05-11T05:43:32;100534.16;;;12.77;64.41
9523;BME280;63165;43.016;25.784;2023-05-11T05:46:00;100533.88;;;12.93;63.54
9523;BME280;63165;43.016;25.784;2023-05-11T05:48:28;100518.84;;;12.99;62.94
9523;BME280;63165;43.016;25.784;2023-05-11T05:50:55;100527.22;;;13.20;62.51
9523;BME280;63165;43.016;25.784;2023-05-11T05:53:26;100500.75;;;13.31;61.51
9523;BME280;63165;43.016;25.784;2023-05-11T05:55:53;100509.00;;;13.56;61.34
9523;BME280;63165;43.016;25.784;2023-05-11T05:58:20;100518.38;;;13.68;59.86
9523;BME280;63165;43.016;25.784;2023-05-11T06:00:48;100511.03;;;13.82;59.44
9523;BME280;63165;43.016;25.784;2023-05-11T06:03:15;100503.09;;;13.85;59.47
9523;BME280;63165;43.016;25.784;2023-05-11T06:05:57;100489.53;;;14.02;59.73
9523;BME280;63165;43.016;25.784;2023-05-11T06:08:27;100521.13;;;14.38;59.39
9523;BME280;63165;43.016;25.784;2023-05-11T06:10:54;100509.31;;;14.54;58.63
9523;BME280;63165;43.016;25.784;2023-05-11T06:13:21;100503.81;;;14.65;57.64
9523;BME280;63165;43.016;25.784;2023-05-11T06:15:49;100500.72;;;14.82;58.14
9523;BME280;63165;43.016;25.784;2023-05-11T06:18:16;100527.88;;;15.17;58.01
9523;BME280;63165;43.016;25.784;2023-05-11T06:20:43;100501.97;;;15.31;57.13
9523;BME280;63165;43.016;25.784;2023-05-11T06:23:10;100483.16;;;15.44;56.91
9523;BME280;63165;43.016;25.784;2023-05-11T06:25:39;100507.66;;;15.79;55.51
9523;BME280;63165;43.016;25.784;2023-05-11T06:28:07;100520.03;;;16.05;54.88
9523;BME280;63165;43.016;25.784;2023-05-11T06:30:34;100509.91;;;16.18;54.21
9523;BME280;63165;43.016;25.784;2023-05-11T06:33:02;100498.97;;;16.30;52.14
9523;BME280;63165;43.016;25.784;2023-05-11T06:35:29;100505.03;;;16.32;51.57
9523;BME280;63165;43.016;25.784;2023-05-11T06:37:56;100497.69;;;16.42;51.45
9523;BME280;63165;43.016;25.784;2023-05-11T06:40:23;100501.56;;;16.57;51.01
9523;BME280;63165;43.016;25.784;2023-05-11T06:42:52;100485.41;;;16.66;49.31
9523;BME280;63165;43.016;25.784;2023-05-11T06:45:19;100485.94;;;16.76;48.86
9523;BME280;63165;43.016;25.784;2023-05-11T06:47:47;100485.59;;;16.86;49.36
9523;BME280;63165;43.016;25.784;2023-05-11T06:50:14;100468.31;;;17.01;49.15
9523;BME280;63165;43.016;25.784;2023-05-11T06:52:41;100489.44;;;17.26;48.24
9523;BME280;63165;43.016;25.784;2023-05-11T06:55:11;100488.00;;;17.41;47.50
9523;BME280;63165;43.016;25.784;2023-05-11T06:57:38;100507.66;;;17.58;46.38
9523;BME280;63165;43.016;25.784;2023-05-11T07:00:09;100518.69;;;17.69;45.62
9523;BME280;63165;43.016;25.784;2023-05-11T07:02:36;100476.22;;;17.72;44.11
9523;BME280;63165;43.016;25.784;2023-05-11T07:05:04;100474.00;;;17.85;43.61
9523;BME280;63165;43.016;25.784;2023-05-11T07:07:31;100501.44;;;18.04;42.54
9523;BME280;63165;43.016;25.784;2023-05-11T07:09:58;100494.38;;;18.05;42.06
9523;BME280;63165;43.016;25.784;2023-05-11T07:12:25;100502.91;;;18.12;42.13
9523;BME280;63165;43.016;25.784;2023-05-11T07:14:53;100495.38;;;18.23;41.84
9523;BME280;63165;43.016;25.784;2023-05-11T07:17:21;100477.00;;;18.20;41.73
9523;BME280;63165;43.016;25.784;2023-05-11T07:19:49;100493.84;;;18.39;41.65
9523;BME280;63165;43.016;25.784;2023-05-11T07:22:17;100472.69;;;18.38;41.50
9523;BME280;63165;43.016;25.784;2023-05-11T07:24:44;100470.38;;;18.51;41.04
9523;BME280;63165;43.016;25.784;2023-05-11T07:27:11;100480.47;;;18.63;40.30
9523;BME280;63165;43.016;25.784;2023-05-11T07:29:39;100494.66;;;18.83;40.13
9523;BME280;63165;43.016;25.784;2023-05-11T07:32:06;100490.41;;;18.99;39.88
9523;BME280;63165;43.016;25.784;2023-05-11T07:34:35;100480.25;;;19.09;38.55
9523;BME280;63165;43.016;25.784;2023-05-11T07:37:03;100468.72;;;19.10;38.09
9523;BME280;63165;43.016;25.784;2023-05-11T07:39:33;100477.63;;;19.28;38.91
9523;BME280;63165;43.016;25.784;2023-05-11T07:42:00;100485.16;;;19.37;38.10
9523;BME280;63165;43.016;25.784;2023-05-11T07:44:28;100486.38;;;19.49;37.32
9523;BME280;63165;43.016;25.784;2023-05-11T07:46:55;100492.03;;;19.60;36.17
9523;BME280;63165;43.016;25.784;2023-05-11T07:49:23;100468.06;;;19.62;35.49
9523;BME280;63165;43.016;25.784;2023-05-11T07:51:54;100470.13;;;19.56;35.21
9523;BME280;63165;43.016;25.784;2023-05-11T07:54:21;100480.81;;;19.74;35.22
9523;BME280;63165;43.016;25.784;2023-05-11T07:56:50;100461.84;;;19.63;34.29
9523;BME280;63165;43.016;25.784;2023-05-11T07:59:18;100446.84;;;19.62;34.54
9523;BME280;63165;43.016;25.784;2023-05-11T08:01:46;100446.16;;;19.77;34.56
9523;BME280;63165;43.016;25.784;2023-05-11T08:04:14;100495.03;;;20.09;34.53
9523;BME280;63165;43.016;25.784;2023-05-11T08:06:42;100485.91;;;20.15;33.40
9523;BME280;63165;43.016;25.784;2023-05-11T08:09:10;100473.06;;;20.23;33.00
9523;BME280;63165;43.016;25.784;2023-05-11T08:11:39;100468.78;;;20.21;33.89
9523;BME280;63165;43.016;25.784;2023-05-11T08:14:06;100466.66;;;20.27;33.32
9523;BME280;63165;43.016;25.784;2023-05-11T08:16:33;100490.44;;;20.48;33.47
9523;BME280;63165;43.016;25.784;2023-05-11T08:19:02;100474.34;;;20.51;33.31
9523;BME280;63165;43.016;25.784;2023-05-11T08:21:30;100470.50;;;20.56;32.57
9523;BME280;63165;43.016;25.784;2023-05-11T08:23:57;100465.25;;;20.55;33.11
9523;BME280;63165;43.016;25.784;2023-05-11T08:26:26;100450.09;;;20.57;32.21
9523;BME280;63165;43.016;25.784;2023-05-11T08:28:53;100456.63;;;20.69;31.93
9523;BME280;63165;43.016;25.784;2023-05-11T08:31:30;100483.25;;;20.85;32.04
9523;BME280;63165;43.016;25.784;2023-05-11T08:33:57;100440.78;;;20.83;32.01
9523;BME280;63165;43.016;25.784;2023-05-11T08:36:24;100441.69;;;21.00;31.81
9523;BME280;63165;43.016;25.784;2023-05-11T08:38:52;100457.84;;;21.28;32.36
9523;BME280;63165;43.016;25.784;2023-05-11T08:41:19;100431.50;;;21.24;31.91
9523;BME280;63165;43.016;25.784;2023-05-11T08:43:51;100443.03;;;21.40;31.68
9523;BME280;63165;43.016;25.784;2023-05-11T08:46:23;100463.00;;;21.65;31.32
9523;BME280;63165;43.016;25.784;2023-05-11T08:48:57;100464.19;;;21.75;31.35
9523;BME280;63165;43.016;25.784;2023-05-11T08:51:33;100450.84;;;21.75;30.47
9523;BME280;63165;43.016;25.784;2023-05-11T08:54:01;100450.09;;;21.73;31.18
9523;BME280;63165;43.016;25.784;2023-05-11T08:56:31;100451.38;;;21.98;31.01
9523;BME280;63165;43.016;25.784;2023-05-11T08:59:05;100439.84;;;21.97;30.99
9523;BME280;63165;43.016;25.784;2023-05-11T09:01:34;100417.50;;;22.00;30.94
9523;BME280;63165;43.016;25.784;2023-05-11T09:04:02;100443.63;;;22.23;30.33
9523;BME280;63165;43.016;25.784;2023-05-11T09:06:31;100457.72;;;22.41;30.38
9523;BME280;63165;43.016;25.784;2023-05-11T09:08:59;100443.00;;;22.50;30.41
9523;BME280;63165;43.016;25.784;2023-05-11T09:11:27;100422.91;;;22.44;30.02
9523;BME280;63165;43.016;25.784;2023-05-11T09:13:58;100453.28;;;22.56;29.69
9523;BME280;63165;43.016;25.784;2023-05-11T09:16:27;100403.34;;;22.29;29.39
9523;BME280;63165;43.016;25.784;2023-05-11T09:18:59;100404.88;;;22.34;29.55
9523;BME280;63165;43.016;25.784;2023-05-11T09:21:26;100423.38;;;22.51;29.38
9523;BME280;63165;43.016;25.784;2023-05-11T09:23:56;100433.66;;;22.43;29.06
9523;BME280;63165;43.016;25.784;2023-05-11T09:26:25;100430.38;;;22.38;29.08
9523;BME280;63165;43.016;25.784;2023-05-11T09:28:56;100421.03;;;22.31;29.50
9523;BME280;63165;43.016;25.784;2023-05-11T09:31:46;100434.88;;;22.52;29.13
9523;BME280;63165;43.016;25.784;2023-05-11T09:34:22;100431.19;;;22.54;29.42
9523;BME280;63165;43.016;25.784;2023-05-11T09:36:50;100402.63;;;22.56;29.98
9523;BME280;63165;43.016;25.784;2023-05-11T09:39:27;100410.50;;;22.72;30.92
9523;BME280;63165;43.016;25.784;2023-05-11T09:42:13;100419.78;;;22.95;29.96
9523;BME280;63165;43.016;25.784;2023-05-11T09:44:41;100429.47;;;22.96;29.70
9523;BME280;63165;43.016;25.784;2023-05-11T09:47:14;100414.63;;;22.92;29.13
9523;BME280;63165;43.016;25.784;2023-05-11T09:49:42;100386.13;;;22.93;28.58
9523;BME280;63165;43.016;25.784;2023-05-11T09:52:10;100424.09;;;23.12;28.60
9523;BME280;63165;43.016;25.784;2023-05-11T09:54:50;100401.56;;;23.02;28.32
9523;BME280;63165;43.016;25.784;2023-05-11T09:57:24;100397.41;;;23.12;28.39
9523;BME280;63165;43.016;25.784;2023-05-11T09:59:56;100392.50;;;23.19;28.08
9523;BME280;63165;43.016;25.784;2023-05-11T10:02:31;100391.41;;;23.09;27.93
9523;BME280;63165;43.016;25.784;2023-05-11T10:05:00;100383.84;;;23.15;28.53
9523;BME280;63165;43.016;25.784;2023-05-11T10:07:40;100371.56;;;23.13;28.67
9523;BME280;63165;43.016;25.784;2023-05-11T10:10:08;100399.34;;;23.23;28.48
9523;BME280;63165;43.016;25.784;2023-05-11T10:12:37;100383.75;;;23.17;28.05
9523;BME280;63165;43.016;25.784;2023-05-11T10:15:09;100383.25;;;23.24;28.58
9523;BME280;63165;43.016;25.784;2023-05-11T10:17:41;100390.47;;;23.37;27.30
9523;BME280;63165;43.016;25.784;2023-05-11T10:20:12;100370.88;;;23.23;27.79
9523;BME280;63165;43.016;25.784;2023-05-11T10:22:54;100390.63;;;23.48;28.76
9523;BME280;63165;43.016;25.784;2023-05-11T10:25:23;100382.13;;;23.56;29.04
9523;BME280;63165;43.016;25.784;2023-05-11T10:28:02;100383.78;;;23.44;28.15
9523;BME280;63165;43.016;25.784;2023-05-11T10:30:31;100361.97;;;23.23;28.64
9523;BME280;63165;43.016;25.784;2023-05-11T10:33:01;100363.63;;;23.25;28.28
9523;BME280;63165;43.016;25.784;2023-05-11T10:35:30;100363.16;;;23.19;28.42
9523;BME280;63165;43.016;25.784;2023-05-11T10:37:58;100382.31;;;23.25;28.73
9523;BME280;63165;43.016;25.784;2023-05-11T10:40:34;100381.84;;;23.19;28.37
9523;BME280;63165;43.016;25.784;2023-05-11T10:43:21;100383.31;;;23.37;28.77
9523;BME280;63165;43.016;25.784;2023-05-11T10:45:59;100368.09;;;23.52;28.44
9523;BME280;63165;43.016;25.784;2023-05-11T10:48:51;100372.69;;;23.50;28.30
9523;BME280;63165;43.016;25.784;2023-05-11T10:51:47;100389.84;;;23.60;29.01
9523;BME280;63165;43.016;25.784;2023-05-11T10:54:39;100367.88;;;23.42;29.15
9523;BME280;63165;43.016;25.784;2023-05-11T10:57:28;100376.78;;;23.29;28.26
9523;BME280;63165;43.016;25.784;2023-05-11T11:03:10;100392.03;;;22.98;29.55
9523;BME280;63165;43.016;25.784;2023-05-11T11:05:48;100371.25;;;22.74;29.31
9523;BME280;63165;43.016;25.784;2023-05-11T11:08:23;100379.94;;;22.92;29.63
9523;BME280;63165;43.016;25.784;2023-05-11T11:11:00;100393.84;;;22.97;29.64
9523;BME280;63165;43.016;25.784;2023-05-11T11:13:28;100375.75;;;23.02;28.93
9523;BME280;63165;43.016;25.784;2023-05-11T11:16:12;100374.97;;;23.15;29.02
9523;BME280;63165;43.016;25.784;2023-05-11T11:18:46;100377.47;;;23.03;29.20
9523;BME280;63165;43.016;25.784;2023-05-11T11:21:41;100386.22;;;22.91;30.12
9523;BME280;63165;43.016;25.784;2023-05-11T11:24:45;100382.13;;;22.85;29.90
9523;BME280;63165;43.016;25.784;2023-05-11T11:27:58;100375.56;;;22.77;29.73
9523;BME280;63165;43.016;25.784;2023-05-11T11:30:39;100385.09;;;22.95;29.84
9523;BME280;63165;43.016;25.784;2023-05-11T11:33:31;100382.22;;;23.13;29.14
9523;BME280;63165;43.016;25.784;2023-05-11T11:36:06;100365.66;;;23.08;29.70
9523;BME280;63165;43.016;25.784;2023-05-11T11:39:00;100382.88;;;23.31;29.32
9523;BME280;63165;43.016;25.784;2023-05-11T11:41:37;100356.19;;;23.16;29.72
9523;BME280;63165;43.016;25.784;2023-05-11T11:44:19;100366.94;;;23.29;29.84
9523;BME280;63165;43.016;25.784;2023-05-11T11:47:09;100373.28;;;23.41;29.19
9523;BME280;63165;43.016;25.784;2023-05-11T11:49:41;100378.94;;;23.36;29.05
9523;BME280;63165;43.016;25.784;2023-05-11T11:55:01;100360.66;;;23.57;29.35
9523;BME280;63165;43.016;25.784;2023-05-11T11:57:44;100341.50;;;23.51;29.20
9523;BME280;63165;43.016;25.784;2023-05-11T12:00:38;100334.50;;;23.62;29.36
9523;BME280;63165;43.016;25.784;2023-05-11T12:03:26;100346.00;;;23.90;29.62
9523;BME280;63165;43.016;25.784;2023-05-11T12:06:00;100354.72;;;24.19;29.57
9523;BME280;63165;43.016;25.784;2023-05-11T12:08:44;100336.66;;;24.23;28.63
9523;BME280;63165;43.016;25.784;2023-05-11T12:11:50;100342.97;;;24.35;28.16
9523;BME280;63165;43.016;25.784;2023-05-11T12:14:24;100347.47;;;24.47;28.15
9523;BME280;63165;43.016;25.784;2023-05-11T12:17:06;100348.22;;;24.49;27.16
9523;BME280;63165;43.016;25.784;2023-05-11T12:20:11;100318.91;;;24.35;26.40
9523;BME280;63165;43.016;25.784;2023-05-11T12:22:53;100314.63;;;24.32;26.77
9523;BME280;63165;43.016;25.784;2023-05-11T12:29:08;100344.78;;;24.47;27.51
9523;BME280;63165;43.016;25.784;2023-05-11T12:31:36;100337.06;;;24.42;27.49
9523;BME280;63165;43.016;25.784;2023-05-11T12:34:05;100363.22;;;24.39;27.34
9523;BME280;63165;43.016;25.784;2023-05-11T12:36:54;100331.19;;;24.12;27.38
9523;BME280;63165;43.016;25.784;2023-05-11T12:40:14;100298.16;;;24.00;27.25
9523;BME280;63165;43.016;25.784;2023-05-11T12:43:17;100298.59;;;24.19;27.45
9523;BME280;63165;43.016;25.784;2023-05-11T12:45:48;100316.56;;;24.30;26.68
9523;BME280;63165;43.016;25.784;2023-05-11T12:52:14;100320.28;;;24.02;26.90
9523;BME280;63165;43.016;25.784;2023-05-11T12:57:46;100310.41;;;23.50;27.35
9523;BME280;63165;43.016;25.784;2023-05-11T13:00:34;100302.31;;;23.51;28.00
9523;BME280;63165;43.016;25.784;2023-05-11T13:03:05;100298.84;;;23.49;27.44
9523;BME280;63165;43.016;25.784;2023-05-11T13:06:04;100307.25;;;23.57;27.13
9523;BME280;63165;43.016;25.784;2023-05-11T13:08:32;100289.06;;;23.50;27.21
9523;BME280;63165;43.016;25.784;2023-05-11T13:11:18;100277.59;;;23.35;26.62
9523;BME280;63165;43.016;25.784;2023-05-11T13:14:16;100290.09;;;23.47;26.81
9523;BME280;63165;43.016;25.784;2023-05-11T13:23:25;100304.63;;;23.43;27.27
9523;BME280;63165;43.016;25.784;2023-05-11T13:25:52;100308.97;;;23.31;28.00
9523;BME280;63165;43.016;25.784;2023-05-11T13:28:20;100296.72;;;23.14;28.06
9523;BME280;63165;43.016;25.784;2023-05-11T13:30:49;100300.06;;;23.18;28.17
9523;BME280;63165;43.016;25.784;2023-05-11T13:33:18;100297.28;;;23.19;28.68
9523;BME280;63165;43.016;25.784;2023-05-11T13:35:46;100300.25;;;23.15;29.11
9523;BME280;63165;43.016;25.784;2023-05-11T13:38:13;100293.88;;;23.03;29.45
9523;BME280;63165;43.016;25.784;2023-05-11T13:40:43;100294.16;;;22.98;29.56